createdAt,value
2022-11-18T08:42:42.535Z,2.67
2022-11-18T08:47:39.202Z,3.34
2022-11-18T08:52:45.532Z,2.36
2022-11-18T08:57:53.237Z,2.43
2022-11-18T09:02:59.589Z,2.29
2022-11-18T09:08:06.158Z,2.33
2022-11-18T09:13:40.339Z,2.36
2022-11-18T09:18:19.713Z,2.32
2022-11-18T09:23:26.137Z,2.34
2022-11-18T09:28:32.564Z,2.18
2022-11-18T09:33:39.002Z,3.75
2022-11-18T09:38:49.882Z,2.61
2022-11-18T09:43:53.726Z,2.80
2022-11-18T09:49:00.081Z,2.78
2022-11-18T09:54:06.522Z,4.83
2022-11-18T09:59:12.985Z,3.27
2022-11-18T10:04:19.720Z,3.11
2022-11-18T10:09:28.194Z,2.63
2022-11-18T10:14:34.626Z,3.01
2022-11-18T10:19:44.232Z,4.31
2022-11-18T10:24:50.558Z,2.62
2022-11-18T10:29:56.937Z,2.23
2022-11-18T10:35:03.300Z,2.30
2022-11-18T10:40:09.925Z,2.38
2022-11-18T10:45:16.348Z,2.12
2022-11-18T10:55:23.174Z,1.46
2022-11-18T11:00:31.178Z,1.45
2022-11-18T11:05:37.561Z,1.79
2022-11-18T11:10:46.303Z,1.38
2022-11-18T11:15:51.828Z,1.28
2022-11-18T11:20:58.096Z,1.36
2022-11-18T11:31:10.347Z,1.28
2022-11-18T11:36:17.426Z,2.31
2022-11-18T11:41:25.964Z,1.23
2022-11-18T11:46:32.239Z,1.07
2022-11-18T11:51:39.462Z,0.85
2022-11-18T12:01:46.336Z,0.90
2022-11-18T12:06:52.768Z,0.80
2022-11-18T12:11:58.910Z,1.10
2022-11-18T12:17:05.389Z,0.76
2022-11-18T12:22:12.773Z,1.73
2022-11-18T12:27:19.031Z,2.60
2022-11-18T12:32:25.340Z,0.76
2022-11-18T12:37:31.651Z,1.22
2022-11-18T12:42:37.940Z,0.73
2022-11-18T12:47:44.137Z,0.96
2022-11-18T12:52:50.448Z,0.87
2022-11-18T12:57:56.722Z,1.72
2022-11-18T13:04:52.188Z,0.85
2022-11-18T13:08:04.952Z,1.58
2022-11-18T13:13:11.397Z,0.83
2022-11-18T13:18:18.913Z,1.17
2022-11-18T13:23:29.493Z,2.02
2022-11-18T13:28:25.869Z,1.25
2022-11-18T13:33:32.114Z,1.21
2022-11-18T13:38:40.034Z,1.79
2022-11-18T13:43:46.443Z,2.20
2022-11-18T13:48:51.167Z,1.50
2022-11-18T13:53:57.504Z,1.24
2022-11-18T13:59:28.879Z,1.88
2022-11-18T14:04:10.826Z,1.55
2022-11-18T14:09:17.963Z,1.12
2022-11-18T14:14:24.156Z,1.99
2022-11-18T14:19:39.705Z,1.50
2022-11-18T14:24:36.147Z,2.77
2022-11-18T14:29:44.013Z,1.64
2022-11-18T14:34:50.406Z,1.68
2022-11-18T14:39:57.944Z,2.07
2022-11-18T14:45:17.923Z,2.51
2022-11-18T14:50:06.835Z,1.94
2022-11-18T14:55:13.237Z,2.09
2022-11-18T15:00:22.559Z,1.56
2022-11-18T15:05:28.881Z,4.00
2022-11-18T15:10:35.264Z,1.12
2022-11-18T15:15:41.741Z,1.22
2022-11-18T15:20:56.325Z,1.22
2022-11-18T15:25:53.836Z,1.45
2022-11-18T15:31:00.146Z,1.04
2022-11-18T15:36:06.982Z,2.38
2022-11-18T15:41:14.235Z,2.17
2022-11-18T15:46:20.519Z,4.08
2022-11-18T15:51:26.783Z,1.69
2022-11-18T15:56:34.207Z,1.31
2022-11-18T16:01:41.725Z,2.09
2022-11-18T16:06:47.939Z,1.71
2022-11-18T16:11:54.112Z,2.58
2022-11-18T16:17:00.409Z,2.31
2022-11-18T16:22:06.714Z,3.20
2022-11-18T16:27:13.011Z,1.92
2022-11-18T16:32:19.264Z,1.92
2022-11-18T16:37:25.615Z,3.06
2022-11-18T16:42:31.903Z,1.62
2022-11-18T16:47:38.296Z,2.12
2022-11-18T16:52:44.813Z,1.95
2022-11-18T16:57:51.676Z,3.52
2022-11-18T17:02:57.999Z,2.94
2022-11-18T17:08:06.796Z,1.98
2022-11-18T17:13:13.401Z,2.27
2022-11-18T17:18:19.711Z,3.45
2022-11-18T17:23:25.931Z,5.43
2022-11-18T17:28:32.376Z,3.23
2022-11-18T17:33:38.585Z,4.85
2022-11-18T17:38:46.168Z,3.02
2022-11-18T17:43:52.382Z,4.03
2022-11-18T17:48:58.654Z,2.58
2022-11-18T17:54:04.970Z,2.70
2022-11-18T17:59:11.332Z,4.36
2022-11-18T18:04:39.976Z,3.41
2022-11-18T18:09:30.654Z,3.59
2022-11-18T18:14:31.942Z,8.04
2022-11-18T18:19:38.282Z,3.48
2022-11-18T18:24:44.546Z,6.77
2022-11-18T18:30:17.336Z,14.49
2022-11-18T18:34:53.532Z,4.44
2022-11-18T18:40:00.552Z,4.50
2022-11-18T18:45:07.894Z,7.72
2022-11-18T18:50:14.191Z,5.15
2022-11-18T18:55:20.457Z,5.96
2022-11-18T19:00:26.729Z,6.26
2022-11-18T19:06:03.217Z,8.62
2022-11-18T19:10:40.037Z,6.68
2022-11-18T19:15:46.347Z,6.82
2022-11-18T19:20:52.551Z,6.32
2022-11-18T19:25:58.772Z,7.35
2022-11-18T19:31:06.395Z,7.55
2022-11-18T19:36:13.039Z,6.27
2022-11-18T19:41:20.508Z,7.57
2022-11-18T19:51:28.192Z,8.52
2022-11-18T19:56:35.120Z,8.12
2022-11-18T20:01:43.166Z,10.67
2022-11-18T20:06:52.976Z,11.60
2022-11-18T20:11:58.190Z,6.55
2022-11-18T20:17:04.555Z,9.75
2022-11-18T20:22:10.749Z,9.88
2022-11-18T20:27:17.054Z,7.21
2022-11-18T20:32:23.887Z,6.98
2022-11-18T20:37:30.206Z,6.86
2022-11-18T20:42:37.529Z,9.73
2022-11-18T20:47:44.075Z,6.52
2022-11-18T20:52:50.375Z,7.18
2022-11-18T20:57:56.659Z,7.51
2022-11-18T21:03:02.848Z,7.97
2022-11-18T21:08:09.177Z,7.88
2022-11-18T21:13:16.280Z,8.10
2022-11-18T21:18:23.254Z,8.05
2022-11-18T21:23:30.645Z,8.04
2022-11-18T21:28:36.843Z,13.59
2022-11-18T21:33:43.374Z,15.73
2022-11-18T21:38:49.752Z,9.92
2022-11-18T21:44:05.424Z,8.22
2022-11-18T21:49:03.021Z,9.31
2022-11-18T21:54:12.141Z,8.66
2022-11-18T21:59:19.190Z,8.86
2022-11-18T22:04:25.955Z,8.55
2022-11-18T22:09:36.480Z,8.08
2022-11-18T22:14:46.929Z,8.41
2022-11-18T22:19:43.131Z,8.96
2022-11-18T22:24:49.462Z,9.57
2022-11-18T22:29:55.684Z,9.64
2022-11-18T22:35:01.908Z,9.81
2022-11-18T22:40:09.321Z,9.00
2022-11-18T22:45:15.605Z,14.17
2022-11-18T22:50:21.810Z,14.20
2022-11-18T22:55:28.159Z,8.77
2022-11-18T23:00:34.366Z,13.45
2022-11-18T23:05:41.849Z,9.90
2022-11-18T23:10:48.104Z,14.12
2022-11-18T23:15:54.403Z,10.09
2022-11-18T23:21:00.541Z,9.72
2022-11-18T23:26:06.771Z,9.41
2022-11-18T23:31:13.457Z,8.44
2022-11-18T23:36:19.714Z,8.71
2022-11-18T23:41:28.436Z,9.05
2022-11-18T23:46:34.698Z,10.29
2022-11-18T23:51:40.889Z,9.20
2022-11-18T23:56:47.133Z,8.77
